createdAt,value
2018-01-21T00:00:18.467Z,1.90
2018-01-21T00:02:46.781Z,2.00
2018-01-21T00:05:15.071Z,3.33
2018-01-21T00:07:43.329Z,1.60
2018-01-21T00:10:11.622Z,2.03
2018-01-21T00:12:39.910Z,2.00
2018-01-21T00:15:08.219Z,2.00
2018-01-21T00:17:36.514Z,1.40
2018-01-21T00:20:04.765Z,1.60
2018-01-21T00:22:41.071Z,2.00
2018-01-21T00:25:09.025Z,1.70
2018-01-21T00:27:37.300Z,1.73
2018-01-21T00:30:05.590Z,1.50
2018-01-21T00:32:33.901Z,1.33
2018-01-21T00:35:02.174Z,1.30
2018-01-21T00:37:30.451Z,1.07
2018-01-21T00:39:58.735Z,1.27
2018-01-21T00:42:27.777Z,1.10
2018-01-21T00:44:56.845Z,1.77
2018-01-21T00:47:25.117Z,1.80
2018-01-21T00:49:53.395Z,1.50
2018-01-21T00:52:21.678Z,1.00
2018-01-21T00:54:49.950Z,1.20
2018-01-21T00:57:18.230Z,0.97
2018-01-21T00:59:46.513Z,1.40
2018-01-21T01:02:14.781Z,1.30
2018-01-21T01:04:43.063Z,0.93
2018-01-21T01:07:11.318Z,0.77
2018-01-21T01:09:39.862Z,0.90
2018-01-21T01:12:08.138Z,0.67
2018-01-21T01:14:36.413Z,0.47
2018-01-21T01:17:04.705Z,1.10
2018-01-21T01:19:35.003Z,1.03
2018-01-21T01:22:03.269Z,1.10
2018-01-21T01:24:31.551Z,1.10
2018-01-21T01:26:59.829Z,0.73
2018-01-21T01:29:28.123Z,1.13
2018-01-21T01:31:56.392Z,1.20
2018-01-21T01:34:24.429Z,0.67
2018-01-21T01:36:52.702Z,1.60
2018-01-21T01:39:20.967Z,1.10
2018-01-21T01:41:49.241Z,1.00
2018-01-21T01:44:17.525Z,1.27
2018-01-21T01:46:45.858Z,1.07
2018-01-21T01:49:14.893Z,1.27
2018-01-21T01:51:43.192Z,1.17
2018-01-21T01:54:11.492Z,1.43
2018-01-21T01:56:39.816Z,1.13
2018-01-21T01:59:08.217Z,1.13
2018-01-21T02:01:36.503Z,1.27
2018-01-21T02:04:04.775Z,1.43
2018-01-21T02:06:33.290Z,1.73
2018-01-21T02:09:01.577Z,1.10
2018-01-21T02:11:30.048Z,1.20
2018-01-21T02:13:58.328Z,2.10
2018-01-21T02:16:26.594Z,0.50
2018-01-21T02:18:55.121Z,0.90
2018-01-21T02:21:22.884Z,1.47
2018-01-21T02:23:51.151Z,1.33
2018-01-21T02:26:19.422Z,1.23
2018-01-21T02:28:47.352Z,0.90
2018-01-21T02:31:15.631Z,0.70
2018-01-21T02:33:43.895Z,0.60
2018-01-21T02:36:12.187Z,0.97
2018-01-21T02:38:40.442Z,0.80
2018-01-21T02:41:08.749Z,2.73
2018-01-21T02:43:37.025Z,1.20
2018-01-21T02:46:05.302Z,1.07
2018-01-21T02:48:33.568Z,1.30
2018-01-21T02:51:01.848Z,1.20
2018-01-21T02:53:30.133Z,0.93
2018-01-21T02:55:58.389Z,0.97
2018-01-21T02:58:26.692Z,0.97
2018-01-21T03:00:54.954Z,1.07
2018-01-21T03:03:24.413Z,1.23
2018-01-21T03:05:53.459Z,0.90
2018-01-21T03:08:21.723Z,0.57
2018-01-21T03:10:50.029Z,0.63
2018-01-21T03:13:18.319Z,0.60
2018-01-21T03:15:46.856Z,0.30
2018-01-21T03:18:15.492Z,0.63
2018-01-21T03:20:43.760Z,0.87
2018-01-21T03:23:12.805Z,0.63
2018-01-21T03:25:41.839Z,1.10
2018-01-21T03:28:10.102Z,1.17
2018-01-21T03:30:38.378Z,0.73
2018-01-21T03:33:06.653Z,0.73
2018-01-21T03:35:34.921Z,1.20
2018-01-21T03:38:03.206Z,1.10
2018-01-21T03:40:31.378Z,0.70
2018-01-21T03:43:02.498Z,0.67
2018-01-21T03:45:30.564Z,0.77
2018-01-21T03:47:59.601Z,1.07
2018-01-21T03:50:28.625Z,0.90
2018-01-21T03:52:56.917Z,1.53
2018-01-21T03:55:25.181Z,1.47
2018-01-21T03:57:53.437Z,2.20
2018-01-21T04:00:21.474Z,0.80
2018-01-21T04:02:49.739Z,1.13
2018-01-21T04:05:18.006Z,0.93
2018-01-21T04:07:46.300Z,0.57
2018-01-21T04:10:14.612Z,1.50
2018-01-21T04:12:42.887Z,1.23
2018-01-21T04:15:11.153Z,0.80
2018-01-21T04:17:39.430Z,1.30
2018-01-21T04:20:07.702Z,1.53
2018-01-21T04:22:35.973Z,1.83
2018-01-21T04:25:03.993Z,1.10
2018-01-21T04:27:32.267Z,1.30
2018-01-21T04:30:00.548Z,1.03
2018-01-21T04:32:28.825Z,1.83
2018-01-21T04:34:57.101Z,1.10
2018-01-21T04:37:25.384Z,1.70
2018-01-21T04:39:53.660Z,1.40
2018-01-21T04:42:21.919Z,1.30
2018-01-21T04:44:50.206Z,1.50
2018-01-21T04:47:18.480Z,1.57
2018-01-21T04:49:46.765Z,2.43
2018-01-21T04:52:15.025Z,0.83
2018-01-21T04:54:43.298Z,1.53
2018-01-21T04:57:12.321Z,0.90
2018-01-21T04:59:40.613Z,1.00
2018-01-21T05:02:08.867Z,1.27
2018-01-21T05:04:37.143Z,1.00
2018-01-21T05:07:05.423Z,1.30
2018-01-21T05:09:33.700Z,0.93
2018-01-21T05:12:01.980Z,1.03
2018-01-21T05:14:30.252Z,1.07
2018-01-21T05:16:58.691Z,0.97
2018-01-21T05:19:26.952Z,1.13
2018-01-21T05:21:55.217Z,1.13
2018-01-21T05:24:24.269Z,0.87
2018-01-21T05:26:52.548Z,1.03
2018-01-21T05:29:20.978Z,1.00
2018-01-21T05:31:49.990Z,0.63
2018-01-21T05:34:18.256Z,1.13
2018-01-21T05:36:46.542Z,0.90
2018-01-21T05:39:14.808Z,0.67
2018-01-21T05:41:43.185Z,0.80
2018-01-21T05:44:11.467Z,0.90
2018-01-21T05:46:39.739Z,0.70
2018-01-21T05:49:08.029Z,1.20
2018-01-21T05:51:36.132Z,1.00
2018-01-21T05:54:04.229Z,1.10
2018-01-21T05:56:32.508Z,1.20
2018-01-21T05:59:01.524Z,1.27
2018-01-21T06:01:29.783Z,0.80
2018-01-21T06:03:58.046Z,1.27
2018-01-21T06:06:26.307Z,1.10
2018-01-21T06:08:54.588Z,0.97
2018-01-21T06:11:22.860Z,1.47
2018-01-21T06:13:51.136Z,1.07
2018-01-21T06:16:19.407Z,0.80
2018-01-21T06:18:47.702Z,1.50
2018-01-21T06:21:15.811Z,0.93
2018-01-21T06:23:44.073Z,1.13
2018-01-21T06:26:13.120Z,0.80
2018-01-21T06:28:41.384Z,0.90
2018-01-21T06:31:09.676Z,1.03
2018-01-21T06:33:37.944Z,0.80
2018-01-21T06:36:06.241Z,0.90
2018-01-21T06:38:34.521Z,1.27
2018-01-21T06:41:02.825Z,1.27
2018-01-21T06:50:15.291Z,1.20
2018-01-21T06:52:43.582Z,1.43
2018-01-21T06:55:11.853Z,1.67
2018-01-21T06:57:40.235Z,1.33
2018-01-21T07:00:07.972Z,1.10
2018-01-21T07:02:36.257Z,1.30
2018-01-21T07:05:04.538Z,1.07
2018-01-21T07:07:32.780Z,1.10
2018-01-21T07:10:01.061Z,1.17
2018-01-21T07:12:29.360Z,1.27
2018-01-21T07:14:57.623Z,1.20
2018-01-21T07:17:25.898Z,0.80
2018-01-21T07:19:54.184Z,1.20
2018-01-21T07:22:22.448Z,0.87
2018-01-21T07:24:50.718Z,1.10
2018-01-21T07:27:19.004Z,1.50
2018-01-21T07:29:47.269Z,1.80
2018-01-21T07:32:15.564Z,1.00
2018-01-21T07:34:43.819Z,1.03
2018-01-21T07:37:12.090Z,1.47
2018-01-21T07:39:40.394Z,1.27
2018-01-21T07:42:08.671Z,1.67
2018-01-21T07:44:36.960Z,1.30
2018-01-21T07:47:05.235Z,1.40
2018-01-21T07:49:33.508Z,0.80
2018-01-21T07:52:01.791Z,1.23
2018-01-21T07:54:30.089Z,0.90
2018-01-21T07:56:58.404Z,1.33
2018-01-21T07:59:26.674Z,0.50
2018-01-21T08:01:55.012Z,0.57
2018-01-21T08:04:23.457Z,0.70
2018-01-21T08:06:51.721Z,0.90
2018-01-21T08:09:20.018Z,0.67
2018-01-21T08:11:48.328Z,1.00
2018-01-21T08:14:16.586Z,1.00
2018-01-21T08:16:44.880Z,0.70
2018-01-21T08:19:13.165Z,0.57
2018-01-21T08:21:41.544Z,0.77
2018-01-21T08:24:09.812Z,1.17
2018-01-21T08:26:38.075Z,0.77
2018-01-21T08:29:06.355Z,0.53
2018-01-21T08:31:34.614Z,0.60
2018-01-21T08:34:08.299Z,0.87
2018-01-21T08:36:41.946Z,1.17
2018-01-21T08:42:19.210Z,0.50
2018-01-21T08:44:47.483Z,0.90
2018-01-21T08:47:15.760Z,0.90
2018-01-21T08:49:44.332Z,0.80
2018-01-21T08:52:12.806Z,1.20
2018-01-21T08:54:41.071Z,1.40
2018-01-21T08:57:09.356Z,1.03
2018-01-21T08:59:37.653Z,0.70
2018-01-21T09:02:05.975Z,0.73
2018-01-21T09:04:34.275Z,1.10
2018-01-21T09:07:02.744Z,1.00
2018-01-21T09:09:31.036Z,0.73
2018-01-21T09:11:59.322Z,1.30
2018-01-21T09:14:27.598Z,1.80
2018-01-21T09:16:55.938Z,1.70
2018-01-21T09:19:24.240Z,1.60
2018-01-21T09:21:52.729Z,1.67
2018-01-21T09:24:21.037Z,1.57
2018-01-21T09:26:49.311Z,1.50
2018-01-21T09:29:17.604Z,1.73
2018-01-21T09:31:45.902Z,1.30
2018-01-21T09:34:14.186Z,1.53
2018-01-21T09:36:42.495Z,1.57
2018-01-21T09:39:10.809Z,1.07
2018-01-21T09:41:39.103Z,1.17
2018-01-21T09:44:07.416Z,1.40
2018-01-21T09:46:35.705Z,1.30
2018-01-21T09:49:03.690Z,1.30
2018-01-21T09:51:32.772Z,2.07
2018-01-21T09:54:01.034Z,1.43
2018-01-21T09:56:38.428Z,1.60
2018-01-21T10:04:59.122Z,1.63
2018-01-21T10:07:27.415Z,1.70
2018-01-21T10:09:55.725Z,1.27
2018-01-21T10:12:23.990Z,2.10
2018-01-21T10:14:52.267Z,1.87
2018-01-21T10:17:20.549Z,2.47
2018-01-21T10:19:48.844Z,1.93
2018-01-21T10:22:17.138Z,1.90
2018-01-21T10:24:45.428Z,2.43
2018-01-21T10:30:06.627Z,1.90
2018-01-21T10:32:35.081Z,2.33
2018-01-21T10:35:03.629Z,1.90
2018-01-21T10:37:32.946Z,2.37
2018-01-21T10:40:02.841Z,1.97
2018-01-21T10:42:31.108Z,2.00
2018-01-21T10:44:59.371Z,2.33
2018-01-21T10:47:27.671Z,2.43
2018-01-21T10:49:59.527Z,2.33
2018-01-21T10:52:28.563Z,2.73
2018-01-21T10:54:56.821Z,3.00
2018-01-21T10:57:25.119Z,2.20
2018-01-21T10:59:53.391Z,2.20
2018-01-21T11:02:21.865Z,1.90
2018-01-21T11:04:50.200Z,1.87
2018-01-21T11:07:18.468Z,2.10
2018-01-21T11:09:46.723Z,1.77
2018-01-21T11:12:19.189Z,2.00
2018-01-21T11:14:48.228Z,2.20
2018-01-21T11:17:16.513Z,2.00
2018-01-21T11:19:44.789Z,1.63
2018-01-21T11:22:13.049Z,1.20
2018-01-21T11:24:41.341Z,2.20
2018-01-21T11:27:09.670Z,2.00
2018-01-21T11:29:38.186Z,1.57
2018-01-21T11:32:06.453Z,1.90
2018-01-21T11:37:28.234Z,1.10
2018-01-21T11:39:56.683Z,1.03
2018-01-21T11:42:25.726Z,2.23
2018-01-21T11:44:53.982Z,1.50
2018-01-21T11:47:22.265Z,2.03
2018-01-21T11:49:50.558Z,1.70
2018-01-21T11:52:18.845Z,1.10
2018-01-21T11:54:47.122Z,1.17
2018-01-21T11:57:15.403Z,1.20
2018-01-21T12:02:41.094Z,0.60
2018-01-21T12:05:09.380Z,0.90
2018-01-21T12:07:37.638Z,0.90
2018-01-21T12:10:05.728Z,1.07
2018-01-21T12:12:34.059Z,0.60
2018-01-21T12:15:02.337Z,0.90
2018-01-21T12:17:30.607Z,0.60
2018-01-21T12:19:58.894Z,0.97
2018-01-21T12:22:27.153Z,0.90
2018-01-21T12:24:58.698Z,1.17
2018-01-21T12:27:26.944Z,1.10
2018-01-21T12:29:55.222Z,0.90
2018-01-21T12:32:23.533Z,0.97
2018-01-21T12:34:51.837Z,1.03
2018-01-21T12:37:20.117Z,1.40
2018-01-21T12:39:48.198Z,1.37
2018-01-21T12:42:16.472Z,0.90
2018-01-21T12:44:44.746Z,1.13
2018-01-21T12:47:13.037Z,1.30
2018-01-21T12:49:41.357Z,1.27
2018-01-21T12:52:10.339Z,1.50
2018-01-21T12:54:38.619Z,1.23
2018-01-21T12:57:06.925Z,1.50
2018-01-21T12:59:35.245Z,1.33
2018-01-21T13:02:04.281Z,1.20
2018-01-21T13:39:08.434Z,1.17
2018-01-21T13:41:36.712Z,1.67
2018-01-21T13:44:04.968Z,1.13
2018-01-21T13:46:33.253Z,1.43
2018-01-21T13:49:01.540Z,1.20
2018-01-21T13:51:29.889Z,1.00
2018-01-21T13:53:58.176Z,1.07
2018-01-21T13:56:26.434Z,1.30
2018-01-21T13:58:54.817Z,1.47
2018-01-21T14:18:42.223Z,1.43
2018-01-21T14:21:10.355Z,1.70
2018-01-21T14:23:39.431Z,1.83
2018-01-21T14:26:07.719Z,1.90
2018-01-21T14:28:36.204Z,1.63
2018-01-21T14:31:04.246Z,1.40
2018-01-21T14:33:32.543Z,1.90
2018-01-21T14:36:00.801Z,1.70
2018-01-21T14:38:29.107Z,1.47
2018-01-21T14:58:15.702Z,1.67
2018-01-21T15:00:44.000Z,1.47
2018-01-21T15:03:13.049Z,1.40
2018-01-21T15:05:41.338Z,2.03
2018-01-21T15:08:09.620Z,1.70
2018-01-21T15:10:37.911Z,1.87
2018-01-21T15:13:06.203Z,1.50
2018-01-21T15:15:34.506Z,2.17
2018-01-21T15:18:02.765Z,2.10
2018-01-21T15:32:04.190Z,1.77
2018-01-21T15:34:32.624Z,1.83
2018-01-21T15:37:00.918Z,2.43
2018-01-21T15:39:29.206Z,1.90
2018-01-21T15:41:58.273Z,2.40
2018-01-21T15:44:26.561Z,3.10
2018-01-21T15:46:54.976Z,3.40
2018-01-21T15:49:23.840Z,2.90
2018-01-21T15:51:52.123Z,2.30
2018-01-21T15:54:26.336Z,3.43
2018-01-21T15:56:54.617Z,3.30
2018-01-21T15:59:22.938Z,3.40
2018-01-21T16:01:51.203Z,3.33
2018-01-21T16:04:19.773Z,3.33
2018-01-21T16:06:48.097Z,3.07
2018-01-21T16:09:16.376Z,4.10
2018-01-21T16:11:44.670Z,6.10
2018-01-21T16:14:12.988Z,4.93
2018-01-21T16:28:14.978Z,4.40
2018-01-21T16:30:43.273Z,3.80
2018-01-21T16:33:11.345Z,4.43
2018-01-21T16:35:39.635Z,4.43
2018-01-21T16:38:19.132Z,4.07
2018-01-21T16:40:47.401Z,4.10
2018-01-21T16:43:15.684Z,4.30
2018-01-21T16:45:43.965Z,4.63
2018-01-21T17:02:37.440Z,5.47
2018-01-21T17:05:05.717Z,7.53
2018-01-21T17:07:33.807Z,6.07
2018-01-21T17:10:02.097Z,5.90
2018-01-21T17:12:30.369Z,5.37
2018-01-21T17:14:59.068Z,6.10
2018-01-21T17:17:28.113Z,5.93
2018-01-21T17:19:56.402Z,6.40
2018-01-21T17:22:24.504Z,6.50
2018-01-21T17:33:37.841Z,6.93
2018-01-21T17:36:06.147Z,7.13
2018-01-21T17:38:34.424Z,6.43
2018-01-21T17:41:02.719Z,6.40
2018-01-21T17:43:30.987Z,7.03
2018-01-21T17:45:59.267Z,7.00
2018-01-21T17:48:27.551Z,7.20
2018-01-21T17:50:55.813Z,7.63
2018-01-21T17:53:24.131Z,8.13
2018-01-21T17:55:58.814Z,8.10
2018-01-21T17:58:27.113Z,8.10
2018-01-21T18:00:55.979Z,9.23
2018-01-21T18:03:24.299Z,8.93
2018-01-21T18:05:52.586Z,9.77
2018-01-21T18:08:20.892Z,9.67
2018-01-21T18:10:49.190Z,9.73
2018-01-21T18:13:17.476Z,10.47
2018-01-21T18:15:45.790Z,10.57
2018-01-21T18:18:17.389Z,10.93
2018-01-21T18:20:45.658Z,11.07
2018-01-21T18:23:13.952Z,10.93
2018-01-21T18:25:42.236Z,11.63
2018-01-21T18:28:10.552Z,10.03
2018-01-21T18:30:38.822Z,11.43
2018-01-21T18:33:07.138Z,11.33
2018-01-21T18:35:35.425Z,12.23
2018-01-21T18:38:03.733Z,13.07
2018-01-21T18:40:32.045Z,12.97
2018-01-21T18:43:00.384Z,13.00
2018-01-21T18:45:28.826Z,14.90
2018-01-21T18:47:57.103Z,13.70
2018-01-21T18:50:25.397Z,14.83
2018-01-21T18:52:53.665Z,14.50
2018-01-21T18:55:21.975Z,13.90
2018-01-21T18:57:50.370Z,14.43
2018-01-21T19:17:42.244Z,16.20
2018-01-21T19:20:10.545Z,16.77
2018-01-21T19:22:38.839Z,15.93
2018-01-21T19:25:07.138Z,16.70
2018-01-21T19:27:35.455Z,17.60
2018-01-21T19:30:03.508Z,17.67
2018-01-21T19:32:31.801Z,18.23
2018-01-21T19:35:00.074Z,18.90
2018-01-21T19:37:28.371Z,17.43
2018-01-21T19:45:49.758Z,19.17
2018-01-21T19:48:18.022Z,18.47
2018-01-21T19:50:47.052Z,19.13
2018-01-21T19:53:15.338Z,20.17
2018-01-21T19:55:43.612Z,20.37
2018-01-21T19:58:11.909Z,19.67
2018-01-21T20:00:40.185Z,20.07
2018-01-21T20:03:08.467Z,20.20
2018-01-21T20:05:36.760Z,21.13
2018-01-21T20:22:35.578Z,23.87
2018-01-21T20:25:03.871Z,21.57
2018-01-21T20:27:32.166Z,20.73
2018-01-21T20:30:00.448Z,20.00
2018-01-21T20:32:28.748Z,22.20
2018-01-21T20:34:57.049Z,21.10
2018-01-21T20:37:25.324Z,20.80
2018-01-21T20:39:53.598Z,17.53
2018-01-21T20:42:21.938Z,17.83
2018-01-21T20:50:37.080Z,16.33
2018-01-21T20:53:10.749Z,16.03
2018-01-21T20:55:39.018Z,15.97
2018-01-21T20:58:07.288Z,15.90
2018-01-21T21:00:35.574Z,16.07
2018-01-21T21:03:03.650Z,14.53
2018-01-21T21:05:31.925Z,13.40
2018-01-21T21:08:00.205Z,12.73
2018-01-21T21:10:28.491Z,13.50
2018-01-21T21:21:36.604Z,11.40
2018-01-21T21:24:04.664Z,11.77
2018-01-21T21:26:32.934Z,12.10
2018-01-21T21:29:01.223Z,12.17
2018-01-21T21:31:29.315Z,11.77
2018-01-21T21:33:57.603Z,12.80
2018-01-21T21:36:25.897Z,12.53
2018-01-21T21:38:54.233Z,13.03
2018-01-21T21:41:22.520Z,13.07
2018-01-21T21:43:51.728Z,13.93
2018-01-21T21:46:20.008Z,12.80
2018-01-21T21:48:48.291Z,13.60
2018-01-21T21:51:16.603Z,12.97
2018-01-21T21:53:44.882Z,12.93
2018-01-21T21:56:13.172Z,13.57
2018-01-21T21:58:41.601Z,11.17
2018-01-21T22:01:09.885Z,10.50
2018-01-21T22:03:38.170Z,9.83
2018-01-21T22:09:01.234Z,9.70
2018-01-21T22:11:29.506Z,9.60
2018-01-21T22:13:57.790Z,10.23
2018-01-21T22:16:26.062Z,9.77
2018-01-21T22:18:54.243Z,10.83
2018-01-21T22:21:22.531Z,10.80
2018-01-21T22:23:50.807Z,11.77
2018-01-21T22:26:19.091Z,11.53
2018-01-21T22:28:47.352Z,10.40
2018-01-21T22:31:17.329Z,10.73
2018-01-21T22:33:45.589Z,11.37
2018-01-21T22:36:13.834Z,10.93
2018-01-21T22:38:42.128Z,11.30
2018-01-21T22:41:10.422Z,11.60
2018-01-21T22:43:38.709Z,11.43
2018-01-21T22:46:07.003Z,12.20
2018-01-21T22:48:35.269Z,12.33
2018-01-21T22:51:03.528Z,13.10
2018-01-21T22:56:31.389Z,15.17
2018-01-21T22:58:59.756Z,14.30
2018-01-21T23:01:28.038Z,15.63
2018-01-21T23:03:56.121Z,14.23
2018-01-21T23:06:24.393Z,14.83
2018-01-21T23:08:52.673Z,15.50
2018-01-21T23:11:20.968Z,14.57
2018-01-21T23:13:49.350Z,13.97
2018-01-21T23:16:17.675Z,14.47
2018-01-21T23:18:45.968Z,14.80
2018-01-21T23:21:14.231Z,14.60
2018-01-21T23:35:16.965Z,15.83
2018-01-21T23:37:45.360Z,14.83
2018-01-21T23:40:13.642Z,16.17
2018-01-21T23:42:41.935Z,15.83
2018-01-21T23:45:10.204Z,16.20
2018-01-21T23:47:38.493Z,16.47
2018-01-21T23:50:06.785Z,16.77
2018-01-21T23:52:35.049Z,15.90
2018-01-21T23:55:03.345Z,16.97
2018-01-21T23:57:31.796Z,16.63
